Time;durP1;ratioP1;P1;durP2;ratioP2;P2;SDS_P1;SDS_P2;PMS_P1;PMS_P2;Temp;Humidity;BMP_temperature;BMP_pressure;BME280_temperature;BME280_humidity;BME280_pressure;Samples;Min_cycle;Max_cycle;Signal;HPM_P1;HPM_P2
2021/01/07 11:32:48;;;;;;;19.55;14.52;;;;;;;7.66;60.24;100352.56;5345369;26;20061;-85
2021/01/07 11:35:22;;;;;;;18.15;13.10;;;;;;;7.05;63.92;100361.72;5346028;26;20687;-85
2021/01/07 11:38:03;;;;;;;16.77;12.13;;;;;;;7.39;62.46;100358.50;5345199;26;20703;-85
2021/01/07 11:40:57;;;;;;;15.85;12.15;;;;;;;7.48;62.82;100355.94;5344960;26;20448;-87
2021/01/07 11:43:52;;;;;;;20.10;12.75;;;;;;;7.71;61.97;100363.94;5345055;26;20090;-85
2021/01/07 12:10:52;;;;;;;17.65;13.02;;;;;;;7.76;60.92;100346.50;5356095;26;20057;-85
2021/01/07 12:13:23;;;;;;;18.25;13.80;;;;;;;7.08;nan;100365.25;5363223;26;20060;-84
2021/01/07 12:15:52;;;;;;;16.87;12.45;;;;;;;6.69;64.90;100354.47;5362479;26;35479;-85
2021/01/07 12:18:19;;;;;;;17.42;11.38;;;;;;;7.02;64.24;100353.88;5362410;26;20097;-85
2021/01/07 12:20:50;;;;;;;21.33;13.50;;;;;;;7.29;63.71;100352.31;5363338;26;20112;-85
2021/01/07 12:23:18;;;;;;;17.98;13.30;;;;;;;7.34;63.16;100345.41;5365605;26;20450;-85
2021/01/07 12:25:47;;;;;;;16.98;12.02;;;;;;;7.18;63.42;100340.94;5364969;26;20052;-85
2021/01/07 12:51:36;;;;;;;26.23;15.13;;;;;;;7.64;61.98;100336.84;5341375;26;20052;-85
2021/01/07 12:54:08;;;;;;;21.85;14.70;;;;;;;7.63;61.85;100342.09;5343955;26;20463;-84
2021/01/07 12:56:47;;;;;;;23.50;14.40;;;;;;;7.66;61.54;100349.94;5344780;26;20070;-84
2021/01/07 12:59:19;;;;;;;22.40;14.23;;;;;;;7.78;61.57;100336.94;5346138;26;20335;-83
2021/01/07 13:27:48;;;;;;;18.12;10.93;;;;;;;7.01;64.20;100359.09;5336475;26;20064;-85
2021/01/07 13:30:16;;;;;;;20.23;12.48;;;;;;;7.16;63.48;100355.72;5344920;26;20105;-85
2021/01/07 13:32:48;;;;;;;29.00;15.93;;;;;;;7.00;63.91;100355.63;5325218;26;20060;-85
2021/01/07 13:35:16;;;;;;;24.60;15.57;;;;;;;6.22;65.44;100365.28;5345593;26;20024;-84
2021/01/07 13:37:48;;;;;;;29.40;15.07;;;;;;;6.85;63.52;100355.47;5325726;26;20071;-85
2021/01/07 15:24:51;;;;;;;17.83;12.73;;;;;;;5.66;66.30;100379.34;5349792;26;20469;-84
2021/01/07 15:27:32;;;;;;;19.77;13.17;;;;;;;6.46;64.13;100372.50;5345359;26;20051;-84
2021/01/07 15:30:36;;;;;;;21.58;14.77;;;;;;;5.42;67.35;100373.78;5364020;26;20143;-84
2021/01/07 15:33:07;;;;;;;22.27;14.73;;;;;;;6.20;64.98;100366.13;5344096;26;20432;-84
2021/01/07 15:35:39;;;;;;;23.25;15.43;;;;;;;6.48;64.64;100369.94;5363996;26;20162;-85
2021/01/07 15:38:46;;;;;;;22.42;16.35;;;;;;;6.62;63.84;100367.44;5363896;26;20062;-84
2021/01/07 15:41:51;;;;;;;27.17;19.00;;;;;;;6.69;63.48;100374.50;5363845;26;20070;-83
2021/01/07 15:44:56;;;;;;;33.67;21.77;;;;;;;6.73;63.01;100366.69;5363707;26;20357;-84
2021/01/07 15:47:41;;;;;;;29.33;18.67;;;;;;;6.74;62.46;100372.81;5364098;26;20587;-84
2021/01/07 15:50:26;;;;;;;29.83;18.55;;;;;;;5.26;67.82;100382.22;5363829;26;20113;-83
2021/01/07 15:53:29;;;;;;;40.15;27.02;;;;;;;5.75;66.56;100370.78;5364057;26;20057;-83
2021/01/07 15:56:15;;;;;;;52.45;34.30;;;;;;;4.64;70.89;100370.78;5343682;26;20076;-84
2021/01/07 15:59:07;;;;;;;43.13;31.12;;;;;;;4.54;72.01;100372.34;5343714;26;20060;-84
2021/01/07 16:01:46;;;;;;;44.03;28.80;;;;;;;3.26;76.76;100372.28;5364948;26;20678;-83
2021/01/07 16:04:24;;;;;;;28.38;16.87;;;;;;;4.82;70.80;100365.00;5364911;26;20081;-83
2021/01/07 16:07:12;;;;;;;31.27;20.42;;;;;;;4.39;71.90;100361.66;5344452;26;20117;-84
2021/01/07 16:09:39;;;;;;;33.85;22.83;;;;;;;4.69;70.66;100368.28;5344659;26;20074;-83
2021/01/07 16:12:11;;;;;;;29.75;20.02;;;;;;;3.68;73.89;100364.59;5364786;26;20056;-84
2021/01/07 16:14:59;;;;;;;32.70;20.15;;;;;;;3.81;74.06;100363.97;5362397;26;20429;-84
2021/01/07 16:17:31;;;;;;;34.30;22.83;;;;;;;4.27;72.41;100372.72;5363441;26;20196;-83
2021/01/07 16:20:02;;;;;;;40.50;25.55;;;;;;;4.16;73.33;100374.22;5343342;26;20064;-84
2021/01/07 16:22:38;;;;;;;39.90;25.20;;;;;;;4.92;70.49;100379.94;5361405;26;20048;-83
2021/01/07 16:25:07;;;;;;;39.45;23.70;;;;;;;4.94;70.51;100377.34;5344624;26;20087;-84
2021/01/07 16:27:46;;;;;;;39.30;27.55;;;;;;;5.24;68.77;100377.00;5362998;26;20109;-84
2021/01/07 16:30:14;;;;;;;37.17;24.90;;;;;;;4.86;69.77;100373.78;5344047;26;20703;-83
2021/01/07 16:32:41;;;;;;;40.15;27.20;;;;;;;5.36;67.80;100387.59;5364375;26;20071;-84
2021/01/07 16:35:09;;;;;;;39.17;26.67;;;;;;;5.36;67.75;100387.59;5365058;26;20044;-83
2021/01/07 16:37:45;;;;;;;39.83;26.87;;;;;;;5.50;67.38;100384.31;5364867;26;20393;-84
2021/01/07 16:40:13;;;;;;;35.25;23.65;;;;;;;5.35;68.26;100400.59;5364462;26;20056;-84
2021/01/07 17:33:02;;;;;;;44.63;27.52;;;;;;;4.47;71.89;100406.00;5359017;26;20446;-84
2021/01/07 17:35:29;;;;;;;47.72;30.73;;;;;;;5.14;69.14;100403.72;5364508;26;20112;-85
2021/01/07 17:37:56;;;;;;;48.80;31.02;;;;;;;5.22;68.73;100410.81;5364558;26;20425;-84
2021/01/07 17:40:22;;;;;;;48.17;27.52;;;;;;;5.18;68.60;100409.03;5363658;26;20063;-85
2021/01/07 17:42:49;;;;;;;55.53;34.03;;;;;;;4.82;69.59;100403.19;5364147;26;20072;-84
2021/01/07 17:45:16;;;;;;;59.13;37.08;;;;;;;4.13;72.89;100413.16;5364193;26;20090;-85
2021/01/07 17:47:42;;;;;;;57.28;36.53;;;;;;;4.54;71.52;100403.56;5344230;26;20060;-84
2021/01/07 17:50:09;;;;;;;50.03;35.45;;;;;;;5.20;68.75;100402.09;5364349;26;20113;-84
2021/01/07 17:52:37;;;;;;;60.80;35.65;;;;;;;4.88;69.39;100399.00;5363795;26;20425;-85
2021/01/07 17:55:06;;;;;;;60.00;36.88;;;;;;;4.26;72.26;100407.34;5363853;26;20063;-85
2021/01/07 17:57:33;;;;;;;;;;;;;;;3.16;75.91;100400.63;5364954;26;20099;-84
2021/01/07 18:00:00;;;;;;;62.40;38.10;;;;;;;3.04;76.66;100409.84;5364738;26;20300;-85
2021/01/07 18:02:29;;;;;;;59.45;35.15;;;;;;;3.37;76.54;100410.63;5363988;26;20744;-84
2021/01/07 18:04:56;;;;;;;44.63;28.92;;;;;;;3.73;74.28;100394.13;5364512;26;20055;-84
2021/01/07 18:07:22;;;;;;;46.25;28.77;;;;;;;3.91;72.93;100397.97;5364126;26;20064;-85
2021/01/07 18:09:48;;;;;;;54.88;34.88;;;;;;;4.32;70.97;100388.38;5362719;26;20127;-85
2021/01/07 18:12:15;;;;;;;46.58;29.45;;;;;;;3.67;73.51;100391.38;5362990;26;20090;-84
2021/01/07 18:14:41;;;;;;;42.97;26.10;;;;;;;3.66;73.83;100394.84;5343335;26;20083;-84
2021/01/07 18:17:08;;;;;;;40.65;25.52;;;;;;;3.12;75.56;100392.75;5344208;26;20070;-85
2021/01/07 18:19:34;;;;;;;45.75;26.45;;;;;;;3.15;76.46;100398.00;5363509;26;20424;-84
2021/01/07 18:22:01;;;;;;;58.67;36.22;;;;;;;3.68;73.87;100400.06;5364479;26;20060;-85
2021/01/07 18:24:27;;;;;;;56.85;32.55;;;;;;;2.72;77.90;100390.00;5364075;26;20056;-84
2021/01/07 18:26:54;;;;;;;59.67;38.15;;;;;;;3.11;76.84;100390.97;5364107;26;20067;-84
2021/01/07 18:29:21;;;;;;;66.10;40.12;;;;;;;3.78;74.49;100382.09;5363810;26;20403;-84
2021/01/07 18:31:48;;;;;;;60.28;36.30;;;;;;;3.61;74.36;100380.88;5362454;26;20098;-85
2021/01/07 18:34:15;;;;;;;60.72;35.22;;;;;;;3.63;75.51;100386.97;5363933;26;20113;-84
2021/01/07 18:36:42;;;;;;;54.13;33.63;;;;;;;4.18;73.36;100385.53;5363549;26;20606;-85
2021/01/07 18:39:09;;;;;;;51.67;32.42;;;;;;;4.61;71.54;100388.94;5343835;26;20104;-85
2021/01/07 18:41:53;;;;;;;45.08;29.85;;;;;;;4.82;70.61;100390.16;5362545;26;20492;-85
2021/01/07 18:44:23;;;;;;;47.62;28.85;;;;;;;4.79;70.63;100388.38;5344418;26;20102;-84
2021/01/07 18:46:49;;;;;;;55.67;30.92;;;;;;;4.93;70.28;100386.03;5362511;26;20394;-84
2021/01/07 18:49:17;;;;;;;43.55;28.27;;;;;;;5.05;69.72;100383.63;5364033;26;20107;-84
2021/01/07 18:51:44;;;;;;;49.30;30.20;;;;;;;5.22;68.99;100387.38;5344216;26;20075;-85
2021/01/07 18:54:11;;;;;;;61.53;32.50;;;;;;;5.45;68.21;100382.53;5364282;26;20067;-84
2021/01/07 18:56:38;;;;;;;64.85;41.00;;;;;;;5.62;67.45;100377.56;5363924;26;20063;-84
2021/01/07 18:59:05;;;;;;;73.95;44.33;;;;;;;4.96;68.97;100376.53;5364210;26;20053;-85
2021/01/07 19:01:31;;;;;;;74.12;44.28;;;;;;;5.38;68.00;100375.47;5363239;26;20104;-84
2021/01/07 19:03:58;;;;;;;76.68;47.78;;;;;;;5.55;67.45;100378.31;5343376;26;20064;-84
2021/01/07 19:06:24;;;;;;;59.55;39.88;;;;;;;5.46;67.45;100378.19;5344069;26;20055;-84
2021/01/07 19:32:08;;;;;;;50.58;30.58;;;;;;;4.39;70.06;100371.19;5293735;26;20065;-86
2021/01/07 19:34:35;;;;;;;54.57;30.17;;;;;;;3.91;72.56;100375.44;5341609;26;20402;-86
2021/01/07 19:37:02;;;;;;;58.45;33.40;;;;;;;4.23;71.74;100363.09;5340237;26;20144;-86
2021/01/07 19:39:29;;;;;;;62.85;36.85;;;;;;;4.67;69.80;100357.81;5341801;26;21010;-86
2021/01/07 19:41:55;;;;;;;75.65;44.10;;;;;;;4.33;71.31;100353.75;5339563;26;20097;-86
2021/01/07 19:44:22;;;;;;;69.12;41.90;;;;;;;4.49;70.62;100339.28;5341576;26;20114;-86
2021/01/07 19:46:48;;;;;;;60.80;38.13;;;;;;;4.69;69.82;100343.13;5341407;26;20098;-86
2021/01/07 19:49:15;;;;;;;55.05;35.38;;;;;;;5.13;68.07;100345.56;5341476;26;20048;-86
2021/01/07 19:51:43;;;;;;;54.17;34.28;;;;;;;5.17;67.52;100342.13;5321879;26;20099;-86
2021/01/07 20:19:34;;;;;;;51.70;33.17;;;;;;;5.79;65.39;100348.22;5360923;26;20131;-85
2021/01/07 20:22:01;;;;;;;43.63;27.42;;;;;;;5.87;65.16;100351.81;5343530;26;20324;-85
2021/01/07 20:24:27;;;;;;;43.70;27.27;;;;;;;5.96;65.01;100357.16;5363522;26;20076;-85
2021/01/07 20:26:54;;;;;;;42.78;25.80;;;;;;;6.00;64.91;100348.53;5343356;26;20061;-85
2021/01/07 20:29:20;;;;;;;37.03;25.88;;;;;;;6.14;64.43;100352.16;5363795;26;20061;-85
2021/01/07 20:31:47;;;;;;;36.53;24.83;;;;;;;6.05;64.73;100340.75;5343482;26;20082;-85
2021/01/07 20:34:13;;;;;;;35.25;24.77;;;;;;;6.11;64.52;100346.91;5343505;26;20403;-85
2021/01/07 20:36:42;;;;;;;33.65;22.05;;;;;;;6.10;64.43;100339.06;5361728;26;20079;-85
2021/01/07 20:39:09;;;;;;;36.50;25.17;;;;;;;6.12;64.29;100342.59;5363709;26;20068;-85
2021/01/07 20:41:38;;;;;;;37.50;24.80;;;;;;;5.10;67.36;100336.84;5343621;26;20122;-85
2021/01/07 20:44:07;;;;;;;32.80;23.20;;;;;;;4.75;68.46;100335.41;5363292;26;20063;-85
2021/01/07 20:46:36;;;;;;;33.05;23.52;;;;;;;4.31;70.34;100335.50;5364654;26;20442;-85
2021/01/07 20:49:04;;;;;;;32.10;22.97;;;;;;;5.41;66.28;100338.13;5363175;26;20108;-85
2021/01/07 20:51:31;;;;;;;30.42;22.60;;;;;;;5.42;66.16;100340.78;5364661;26;20551;-85
2021/01/07 20:53:58;;;;;;;30.58;22.62;;;;;;;5.57;65.85;100344.47;5364362;26;20067;-86
2021/01/07 20:56:24;;;;;;;32.72;24.58;;;;;;;5.66;65.56;100339.38;5364711;26;20666;-85
2021/01/07 20:58:51;;;;;;;30.60;22.75;;;;;;;5.80;65.09;100330.00;5364632;26;20119;-85
2021/01/07 21:01:17;;;;;;;35.03;24.17;;;;;;;5.99;64.58;100336.34;5344513;26;20056;-86
2021/01/07 21:03:45;;;;;;;28.65;21.83;;;;;;;5.96;64.63;100335.44;5364614;26;20089;-85
2021/01/07 21:06:13;;;;;;;36.22;24.58;;;;;;;5.90;64.70;100328.37;5344453;26;20060;-85
2021/01/07 21:08:40;;;;;;;32.90;25.90;;;;;;;5.78;65.02;100329.09;5364514;26;20342;-85
2021/01/07 21:11:08;;;;;;;36.13;26.58;;;;;;;5.86;64.88;100330.06;5344917;26;20067;-85
2021/01/07 21:13:34;;;;;;;38.42;28.52;;;;;;;6.02;64.54;100332.88;5364510;26;20063;-85
2021/01/07 21:16:01;;;;;;;40.95;30.85;;;;;;;5.96;64.58;100323.25;5344432;26;20060;-85
2021/01/07 21:18:31;;;;;;;45.33;29.43;;;;;;;5.81;65.19;100323.91;5364535;26;20068;-85
2021/01/07 21:20:57;;;;;;;37.80;30.73;;;;;;;6.01;64.50;100318.97;5344666;26;20123;-85
2021/01/07 21:23:24;;;;;;;41.65;30.37;;;;;;;5.79;65.33;100322.13;5364636;26;20051;-85
2021/01/07 21:26:03;;;;;;;34.63;26.25;;;;;;;6.09;64.38;100316.47;5364780;26;20668;-85
2021/01/07 21:28:30;;;;;;;38.38;27.37;;;;;;;5.99;64.31;100317.22;5364855;26;20338;-85
2021/01/07 21:30:56;;;;;;;39.63;29.63;;;;;;;5.92;64.74;100316.22;5364739;26;20049;-85
2021/01/07 21:33:23;;;;;;;41.10;29.90;;;;;;;5.83;65.10;100313.53;5344361;26;20102;-86
2021/01/07 21:35:49;;;;;;;34.95;27.02;;;;;;;5.94;64.93;100324.97;5344758;26;20056;-85
2021/01/07 21:38:16;;;;;;;32.85;24.37;;;;;;;5.90;65.21;100316.19;5364452;26;20078;-85
2021/01/07 21:40:42;;;;;;;33.38;24.20;;;;;;;5.91;65.26;100320.56;5364571;26;20064;-85
2021/01/07 21:43:09;;;;;;;37.30;24.75;;;;;;;6.09;64.66;100314.72;5364633;26;20051;-85
2021/01/07 21:45:36;;;;;;;32.85;24.80;;;;;;;6.00;64.88;100304.19;5364593;26;20099;-85
2021/01/07 21:48:06;;;;;;;28.52;22.60;;;;;;;6.04;64.77;100311.19;5362893;26;20060;-85
2021/01/07 21:50:37;;;;;;;39.38;28.08;;;;;;;6.07;64.76;100311.22;5344494;26;20401;-85
2021/01/07 21:53:04;;;;;;;39.42;27.70;;;;;;;6.09;64.65;100326.91;5364367;26;20110;-86
2021/01/07 21:55:32;;;;;;;32.20;23.15;;;;;;;6.11;64.53;100331.25;5364077;26;20091;-85
2021/01/07 21:57:58;;;;;;;30.77;22.87;;;;;;;6.23;64.33;100319.19;5344632;26;20154;-85
2021/01/07 22:00:25;;;;;;;34.97;24.08;;;;;;;6.22;64.38;100322.69;5344731;26;20095;-85
2021/01/07 22:02:53;;;;;;;37.47;27.33;;;;;;;6.29;64.07;100308.81;5364584;26;20421;-86
2021/01/07 22:05:21;;;;;;;33.30;24.45;;;;;;;6.44;63.57;100301.16;5364191;26;20717;-85
2021/01/07 22:07:47;;;;;;;34.25;24.40;;;;;;;6.60;62.68;100305.66;5363048;26;20116;-85
2021/01/07 22:10:14;;;;;;;32.67;24.50;;;;;;;6.39;63.28;100302.84;5364488;26;20078;-86
2021/01/07 22:12:40;;;;;;;35.40;25.58;;;;;;;6.33;63.56;100303.66;5364378;26;20052;-85
2021/01/07 22:15:08;;;;;;;34.50;24.23;;;;;;;6.26;64.10;100309.66;5364289;26;20064;-86
2021/01/07 22:17:37;;;;;;;28.98;20.15;;;;;;;6.12;64.53;100304.31;5344106;26;20559;-85
2021/01/07 22:20:06;;;;;;;33.22;23.35;;;;;;;6.25;64.33;100304.44;5344499;26;20044;-85
2021/01/07 22:22:34;;;;;;;48.28;31.00;;;;;;;6.38;63.96;100295.88;5364480;26;20498;-86
2021/01/07 22:25:00;;;;;;;37.80;26.70;;;;;;;6.44;63.75;100285.50;5344219;26;20075;-85
2021/01/07 22:27:27;;;;;;;49.28;30.98;;;;;;;6.39;63.77;100295.03;5362773;26;20359;-86
2021/01/07 22:29:54;;;;;;;49.38;33.10;;;;;;;6.42;63.77;100291.56;5344297;26;20056;-85
2021/01/07 22:32:21;;;;;;;42.25;28.17;;;;;;;6.34;63.94;100299.31;5344340;26;20368;-86
2021/01/07 22:34:53;;;;;;;34.78;24.05;;;;;;;6.31;63.91;100301.91;5344376;26;20080;-86
2021/01/07 22:37:21;;;;;;;26.25;19.48;;;;;;;6.36;63.59;100305.44;5364653;26;20108;-85
2021/01/07 22:39:50;;;;;;;23.30;16.65;;;;;;;6.27;63.65;100311.44;5364363;26;20454;-85
2021/01/07 22:42:17;;;;;;;26.98;18.95;;;;;;;6.33;63.51;100314.09;5362618;26;20096;-85
2021/01/07 22:44:43;;;;;;;27.23;19.92;;;;;;;6.29;63.57;100307.09;5364276;26;20123;-85
2021/01/07 22:47:10;;;;;;;26.75;18.95;;;;;;;6.39;63.33;100304.59;5364335;26;20386;-85
2021/01/07 22:49:37;;;;;;;30.40;21.17;;;;;;;6.37;63.41;100302.81;5364279;26;20512;-85
2021/01/07 22:52:06;;;;;;;28.33;18.87;;;;;;;6.41;63.36;100298.50;5364219;26;20111;-85
2021/01/07 22:54:33;;;;;;;23.83;16.00;;;;;;;6.39;63.46;100308.06;5363865;26;20124;-85
2021/01/07 22:56:59;;;;;;;29.27;18.98;;;;;;;6.45;63.32;100297.69;5364574;26;20119;-85
2021/01/07 22:59:25;;;;;;;26.77;18.15;;;;;;;6.40;63.46;100298.50;5343754;26;20090;-86
2021/01/07 23:01:52;;;;;;;28.25;19.70;;;;;;;6.55;63.04;100290.81;5364359;26;20079;-86
2021/01/07 23:04:18;;;;;;;25.33;17.83;;;;;;;6.60;62.81;100294.34;5344112;26;20106;-85
2021/01/07 23:06:45;;;;;;;27.10;19.02;;;;;;;6.66;62.52;100291.78;5363404;26;20491;-85
2021/01/07 23:09:12;;;;;;;27.20;18.58;;;;;;;6.44;63.04;100300.28;5344065;26;20074;-85
2021/01/07 23:11:40;;;;;;;26.70;19.00;;;;;;;6.41;63.24;100295.88;5362601;26;20131;-85
2021/01/07 23:14:07;;;;;;;32.83;24.00;;;;;;;5.55;66.23;100289.69;5343983;26;20075;-86
2021/01/07 23:16:34;;;;;;;54.38;35.83;;;;;;;6.01;64.96;100279.84;5364156;26;20055;-86
2021/01/07 23:19:01;;;;;;;63.45;43.55;;;;;;;6.00;64.69;100288.56;5363817;26;20426;-85
2021/01/07 23:21:32;;;;;;;48.53;31.20;;;;;;;6.06;64.48;100280.78;5364160;26;20123;-85
2021/01/07 23:23:59;;;;;;;40.50;27.92;;;;;;;6.10;64.49;100282.56;5364152;26;20098;-86
2021/01/07 23:26:25;;;;;;;50.63;32.88;;;;;;;6.25;64.03;100267.91;5364059;26;20214;-85
2021/01/07 23:28:52;;;;;;;39.50;25.10;;;;;;;6.32;63.89;100265.41;5364217;26;20068;-85
2021/01/07 23:31:18;;;;;;;31.20;21.52;;;;;;;6.29;63.83;100270.56;5363946;26;20045;-86
2021/01/07 23:33:45;;;;;;;27.73;19.00;;;;;;;6.23;63.98;100269.62;5364211;26;20064;-85
2021/01/07 23:36:11;;;;;;;27.25;17.42;;;;;;;5.87;65.16;100270.97;5364005;26;20071;-85
2021/01/07 23:38:38;;;;;;;27.77;18.52;;;;;;;6.08;64.46;100257.31;5364204;26;20052;-85
2021/01/07 23:41:09;;;;;;;28.05;19.98;;;;;;;6.23;63.96;100262.66;5363826;26;20075;-86
2021/01/07 23:43:37;;;;;;;27.40;19.25;;;;;;;6.23;64.02;100257.44;5364423;26;20087;-85
2021/01/07 23:46:05;;;;;;;28.50;19.98;;;;;;;6.17;64.21;100262.62;5363837;26;20055;-85
2021/01/07 23:48:33;;;;;;;28.10;19.37;;;;;;;6.23;64.25;100256.59;5364096;26;20083;-85
2021/01/07 23:50:59;;;;;;;25.23;18.25;;;;;;;6.33;63.90;100250.59;5362254;26;20116;-86
2021/01/07 23:53:25;;;;;;;25.10;18.27;;;;;;;6.31;63.96;100261.03;5363964;26;20060;-84
2021/01/07 23:55:52;;;;;;;25.30;18.12;;;;;;;6.40;63.81;100254.13;5363677;26;20075;-85
2021/01/07 23:58:18;;;;;;;26.75;18.70;;;;;;;6.29;64.09;100262.72;5363946;26;20067;-85
